createdAt,value
2018-04-12T00:06:57.054Z,11.39
2018-04-12T00:16:58.031Z,11.13
2018-04-12T00:26:57.104Z,10.83
2018-04-12T00:36:57.145Z,10.63
2018-04-12T00:46:57.090Z,10.65
2018-04-12T00:56:57.063Z,10.55
2018-04-12T01:06:57.157Z,10.51
2018-04-12T01:16:57.078Z,10.26
2018-04-12T01:26:57.028Z,10.12
2018-04-12T01:36:57.093Z,10.18
2018-04-12T01:46:57.077Z,10.07
2018-04-12T01:56:57.064Z,9.93
2018-04-12T02:06:57.088Z,9.86
2018-04-12T02:17:02.634Z,9.64
2018-04-12T02:26:57.129Z,9.43
2018-04-12T02:36:57.096Z,9.23
2018-04-12T02:46:57.027Z,9.09
2018-04-12T02:56:57.092Z,8.94
2018-04-12T03:06:57.068Z,8.88
2018-04-12T03:16:57.042Z,8.9
2018-04-12T03:26:57.120Z,8.88
2018-04-12T03:36:57.042Z,8.75
2018-04-12T03:46:57.179Z,8.76
2018-04-12T03:56:57.047Z,8.79
2018-04-12T04:06:57.027Z,8.75
2018-04-12T04:16:57.099Z,8.63
2018-04-12T04:26:57.039Z,8.86
2018-04-12T04:36:56.989Z,9.15
2018-04-12T04:46:57.110Z,9.39
2018-04-12T04:56:57.030Z,9.64
2018-04-12T05:06:57.073Z,9.82
2018-04-12T05:16:57.200Z,10.14
2018-04-12T05:26:57.035Z,10.55
2018-04-12T05:36:57.126Z,10.76
2018-04-12T05:46:57.079Z,11.11
2018-04-12T05:56:57.014Z,11.41
2018-04-12T06:06:57.250Z,11.34
2018-04-12T06:16:57.041Z,11.38
2018-04-12T06:26:57.165Z,11.52
2018-04-12T06:36:57.130Z,11.47
2018-04-12T06:46:57.028Z,11.39
2018-04-12T06:56:57.139Z,11.32
2018-04-12T07:06:57.087Z,11.31
2018-04-12T07:16:57.491Z,11.25
2018-04-12T07:26:57.055Z,11.38
2018-04-12T07:36:57.000Z,11.78
2018-04-12T07:46:57.093Z,12.26
2018-04-12T07:56:57.038Z,12.67
2018-04-12T08:06:56.999Z,12.77
2018-04-12T08:16:57.052Z,13.06
2018-04-12T08:26:57.318Z,13.21
2018-04-12T08:36:57.103Z,13.51
2018-04-12T08:46:57.094Z,13.89
2018-04-12T08:56:58.079Z,13.58
2018-04-12T09:06:57.092Z,13.54
2018-04-12T09:16:56.996Z,13.69
2018-04-12T09:26:56.960Z,13.95
2018-04-12T09:36:56.981Z,14.68
2018-04-12T09:46:56.964Z,14.86
2018-04-12T09:56:57.029Z,14.78
2018-04-12T10:06:57.033Z,15.68
2018-04-12T10:16:56.996Z,15.92
2018-04-12T10:26:56.975Z,15.82
2018-04-12T10:36:57.011Z,15.89
2018-04-12T10:46:57.038Z,16.11
2018-04-12T10:56:57.050Z,16.45
2018-04-12T11:06:56.970Z,16.73
2018-04-12T11:16:56.991Z,16.62
2018-04-12T11:26:57.023Z,16.78
2018-04-12T11:36:57.012Z,17.36
2018-04-12T11:46:57.053Z,17.32
2018-04-12T11:56:57.029Z,17.73
2018-04-12T12:06:56.987Z,17.51
2018-04-12T12:16:56.986Z,17.53
2018-04-12T12:26:56.985Z,16.9
2018-04-12T12:36:57.011Z,17.5
2018-04-12T12:46:57.172Z,17.29
2018-04-12T12:56:57.108Z,17.32
2018-04-12T13:06:57.071Z,17.3
2018-04-12T13:17:08.464Z,17.11
2018-04-12T13:26:59.155Z,17.33
2018-04-12T13:37:02.047Z,17.55
2018-04-12T13:57:02.031Z,17.55
2018-04-12T14:07:07.313Z,17.67
2018-04-12T14:36:56.984Z,18.36
2018-04-12T14:47:15.436Z,18.58
2018-04-12T15:27:01.468Z,19.2
2018-04-12T15:46:57.035Z,18.67
2018-04-12T15:57:01.590Z,18.33
2018-04-12T16:06:57.116Z,17.94
2018-04-12T16:16:57.008Z,17.88
2018-04-12T16:26:57.106Z,17.66
2018-04-12T16:36:57.067Z,17.5
2018-04-12T16:46:57.634Z,17.23
2018-04-12T16:56:57.372Z,17.15
2018-04-12T17:06:57.223Z,16.15
2018-04-12T17:16:57.154Z,14.98
2018-04-12T17:26:57.953Z,14.67
2018-04-12T17:46:57.102Z,14.47
2018-04-12T17:57:05.161Z,14.2
2018-04-12T18:06:57.814Z,14.16
2018-04-12T18:16:57.029Z,13.92
2018-04-12T18:26:57.114Z,13.96
2018-04-12T18:36:57.095Z,13.65
2018-04-12T18:46:57.948Z,13.73
2018-04-12T18:56:57.065Z,13.59
2018-04-12T19:06:59.018Z,13.56
2018-04-12T19:16:57.126Z,13.89
2018-04-12T19:26:57.161Z,13.84
2018-04-12T19:36:57.154Z,13.89
2018-04-12T19:46:57.205Z,13.94
2018-04-12T19:56:57.185Z,13.95
2018-04-12T20:06:57.261Z,13.88
2018-04-12T20:16:57.196Z,13.77
2018-04-12T20:26:57.222Z,13.44
2018-04-12T20:36:57.194Z,13.41
2018-04-12T20:46:57.327Z,13.29
2018-04-12T20:56:57.324Z,13.21
2018-04-12T21:06:57.456Z,13.02
2018-04-12T21:16:57.267Z,12.77
2018-04-12T21:26:57.301Z,12.85
2018-04-12T21:36:57.267Z,12.87
2018-04-12T21:46:57.368Z,13.06
2018-04-12T21:56:57.205Z,13.09
2018-04-12T22:06:57.305Z,12.92
2018-04-12T22:16:57.315Z,12.96
2018-04-12T22:26:57.302Z,12.81
2018-04-12T22:36:57.324Z,12.89
2018-04-12T22:46:57.373Z,12.92
2018-04-12T22:56:57.369Z,12.75
2018-04-12T23:06:57.322Z,12.81
2018-04-12T23:16:57.368Z,12.74
2018-04-12T23:26:57.308Z,12.62
2018-04-12T23:36:57.413Z,12.67
2018-04-12T23:46:57.330Z,12.81
2018-04-12T23:56:57.452Z,12.71
